sensor_id;sensor_type;location;lat;lon;timestamp;pressure;altitude;pressure_sealevel;temperature;humidity
49342;BME280;35210;41.606;-87.602;2022-07-10T00:00:19;99988.16;;;26.47;55.86
49342;BME280;35210;41.606;-87.602;2022-07-10T00:02:50;99989.81;;;26.35;55.44
49342;BME280;35210;41.606;-87.602;2022-07-10T00:05:21;99994.97;;;26.23;56.03
49342;BME280;35210;41.606;-87.602;2022-07-10T00:07:51;99998.72;;;26.29;56.54
49342;BME280;35210;41.606;-87.602;2022-07-10T00:10:19;99998.72;;;26.22;57.19
49342;BME280;35210;41.606;-87.602;2022-07-10T00:12:51;99999.97;;;26.19;57.64
49342;BME280;35210;41.606;-87.602;2022-07-10T00:15:21;100001.00;;;26.25;57.09
49342;BME280;35210;41.606;-87.602;2022-07-10T00:17:49;99997.47;;;26.25;57.36
49342;BME280;35210;41.606;-87.602;2022-07-10T00:20:18;99987.06;;;26.22;57.01
49342;BME280;35210;41.606;-87.602;2022-07-10T00:22:48;99982.28;;;26.24;57.31
49342;BME280;35210;41.606;-87.602;2022-07-10T00:25:17;99984.75;;;26.18;57.59
49342;BME280;35210;41.606;-87.602;2022-07-10T00:27:45;99983.56;;;26.41;57.37
49342;BME280;35210;41.606;-87.602;2022-07-10T00:30:14;99984.97;;;26.30;57.19
49342;BME280;35210;41.606;-87.602;2022-07-10T00:32:43;99991.41;;;26.09;57.65
49342;BME280;35210;41.606;-87.602;2022-07-10T00:35:11;99994.94;;;26.03;57.96
49342;BME280;35210;41.606;-87.602;2022-07-10T00:37:39;99989.50;;;26.03;58.02
49342;BME280;35210;41.606;-87.602;2022-07-10T00:40:09;99992.44;;;25.95;57.55
49342;BME280;35210;41.606;-87.602;2022-07-10T00:42:38;99992.22;;;25.97;57.92
49342;BME280;35210;41.606;-87.602;2022-07-10T00:45:09;99980.75;;;25.88;58.50
49342;BME280;35210;41.606;-87.602;2022-07-10T00:47:38;99981.22;;;25.98;57.54
49342;BME280;35210;41.606;-87.602;2022-07-10T00:50:06;99975.56;;;25.93;57.95
49342;BME280;35210;41.606;-87.602;2022-07-10T00:52:35;99982.63;;;25.88;58.04
49342;BME280;35210;41.606;-87.602;2022-07-10T00:55:06;99972.41;;;25.76;57.61
49342;BME280;35210;41.606;-87.602;2022-07-10T00:57:38;99966.56;;;25.73;57.76
49342;BME280;35210;41.606;-87.602;2022-07-10T01:00:08;99965.38;;;25.89;57.24
49342;BME280;35210;41.606;-87.602;2022-07-10T01:02:41;99979.47;;;25.77;57.93
49342;BME280;35210;41.606;-87.602;2022-07-10T01:05:09;99974.47;;;25.74;57.73
49342;BME280;35210;41.606;-87.602;2022-07-10T01:07:37;99965.31;;;25.69;58.06
49342;BME280;35210;41.606;-87.602;2022-07-10T01:10:06;99965.53;;;25.74;57.96
49342;BME280;35210;41.606;-87.602;2022-07-10T01:12:34;99971.59;;;25.82;57.04
49342;BME280;35210;41.606;-87.602;2022-07-10T01:15:06;99968.66;;;25.77;56.77
49342;BME280;35210;41.606;-87.602;2022-07-10T01:17:35;99972.38;;;25.70;57.13
49342;BME280;35210;41.606;-87.602;2022-07-10T01:20:07;99973.81;;;25.66;57.04
49342;BME280;35210;41.606;-87.602;2022-07-10T01:22:41;99971.88;;;25.53;57.99
49342;BME280;35210;41.606;-87.602;2022-07-10T01:25:10;99983.53;;;25.60;57.61
49342;BME280;35210;41.606;-87.602;2022-07-10T01:27:41;99988.72;;;25.55;57.89
49342;BME280;35210;41.606;-87.602;2022-07-10T01:30:11;99987.28;;;25.59;58.24
49342;BME280;35210;41.606;-87.602;2022-07-10T01:32:42;99986.03;;;25.55;58.15
49342;BME280;35210;41.606;-87.602;2022-07-10T01:35:10;99982.47;;;25.54;57.71
49342;BME280;35210;41.606;-87.602;2022-07-10T01:37:40;100001.78;;;25.45;58.21
49342;BME280;35210;41.606;-87.602;2022-07-10T01:40:10;99996.13;;;25.40;58.46
49342;BME280;35210;41.606;-87.602;2022-07-10T01:42:38;99994.03;;;25.76;57.88
49342;BME280;35210;41.606;-87.602;2022-07-10T01:45:08;99988.13;;;25.60;58.55
49342;BME280;35210;41.606;-87.602;2022-07-10T01:47:37;99997.91;;;25.61;58.36
49342;BME280;35210;41.606;-87.602;2022-07-10T01:50:06;100003.72;;;25.58;58.81
49342;BME280;35210;41.606;-87.602;2022-07-10T01:52:34;99990.19;;;25.58;58.52
49342;BME280;35210;41.606;-87.602;2022-07-10T01:55:05;100001.41;;;25.54;58.53
49342;BME280;35210;41.606;-87.602;2022-07-10T01:57:35;100003.06;;;25.55;58.75
49342;BME280;35210;41.606;-87.602;2022-07-10T02:00:05;100004.16;;;25.61;58.88
49342;BME280;35210;41.606;-87.602;2022-07-10T02:02:34;99998.53;;;25.63;58.62
49342;BME280;35210;41.606;-87.602;2022-07-10T02:05:03;100000.13;;;25.50;59.03
49342;BME280;35210;41.606;-87.602;2022-07-10T02:07:30;100008.47;;;25.55;59.02
49342;BME280;35210;41.606;-87.602;2022-07-10T02:09:58;100004.94;;;25.55;59.11
49342;BME280;35210;41.606;-87.602;2022-07-10T02:12:31;100015.97;;;25.53;59.36
49342;BME280;35210;41.606;-87.602;2022-07-10T02:14:59;100013.66;;;25.50;59.59
49342;BME280;35210;41.606;-87.602;2022-07-10T02:17:28;100021.53;;;25.45;59.71
49342;BME280;35210;41.606;-87.602;2022-07-10T02:19:56;100025.97;;;25.60;58.90
49342;BME280;35210;41.606;-87.602;2022-07-10T02:22:25;100033.63;;;25.49;59.33
49342;BME280;35210;41.606;-87.602;2022-07-10T02:24:53;100029.66;;;25.45;59.19
49342;BME280;35210;41.606;-87.602;2022-07-10T02:27:23;100026.63;;;25.62;58.95
49342;BME280;35210;41.606;-87.602;2022-07-10T02:29:52;100026.31;;;25.43;59.37
49342;BME280;35210;41.606;-87.602;2022-07-10T02:32:21;100026.75;;;25.88;58.24
49342;BME280;35210;41.606;-87.602;2022-07-10T02:34:50;100032.56;;;25.44;59.28
49342;BME280;35210;41.606;-87.602;2022-07-10T02:37:20;100030.00;;;25.36;59.49
49342;BME280;35210;41.606;-87.602;2022-07-10T02:39:49;100026.28;;;25.37;59.04
49342;BME280;35210;41.606;-87.602;2022-07-10T02:42:17;100024.25;;;25.45;59.03
49342;BME280;35210;41.606;-87.602;2022-07-10T02:44:47;100022.56;;;25.44;59.36
49342;BME280;35210;41.606;-87.602;2022-07-10T02:47:17;100018.50;;;25.20;59.73
49342;BME280;35210;41.606;-87.602;2022-07-10T02:49:49;100024.50;;;25.16;60.06
49342;BME280;35210;41.606;-87.602;2022-07-10T02:52:18;100018.28;;;25.15;59.84
49342;BME280;35210;41.606;-87.602;2022-07-10T02:54:46;100013.66;;;25.09;60.39
49342;BME280;35210;41.606;-87.602;2022-07-10T02:57:14;100015.75;;;25.14;60.16
49342;BME280;35210;41.606;-87.602;2022-07-10T02:59:42;100011.53;;;25.05;60.50
49342;BME280;35210;41.606;-87.602;2022-07-10T03:02:10;100014.00;;;25.00;60.90
49342;BME280;35210;41.606;-87.602;2022-07-10T03:04:41;100015.75;;;25.14;60.57
49342;BME280;35210;41.606;-87.602;2022-07-10T03:07:09;100015.03;;;24.99;61.30
49342;BME280;35210;41.606;-87.602;2022-07-10T03:09:38;100016.66;;;25.28;60.56
49342;BME280;35210;41.606;-87.602;2022-07-10T03:12:07;100025.44;;;25.02;61.45
49342;BME280;35210;41.606;-87.602;2022-07-10T03:14:35;100028.34;;;25.00;61.57
49342;BME280;35210;41.606;-87.602;2022-07-10T03:17:04;100023.03;;;25.13;61.46
49342;BME280;35210;41.606;-87.602;2022-07-10T03:19:33;100022.34;;;25.05;61.67
49342;BME280;35210;41.606;-87.602;2022-07-10T03:22:03;100012.66;;;25.17;61.14
49342;BME280;35210;41.606;-87.602;2022-07-10T03:24:31;100024.84;;;25.06;61.48
49342;BME280;35210;41.606;-87.602;2022-07-10T03:27:00;100018.22;;;25.09;61.44
49342;BME280;35210;41.606;-87.602;2022-07-10T03:29:28;100022.34;;;25.05;61.50
49342;BME280;35210;41.606;-87.602;2022-07-10T03:31:57;100027.72;;;24.98;61.66
49342;BME280;35210;41.606;-87.602;2022-07-10T03:34:25;100033.66;;;24.94;62.22
49342;BME280;35210;41.606;-87.602;2022-07-10T03:36:53;100040.50;;;24.89;62.39
49342;BME280;35210;41.606;-87.602;2022-07-10T03:39:23;100038.81;;;24.88;62.66
49342;BME280;35210;41.606;-87.602;2022-07-10T03:41:51;100037.53;;;24.84;62.49
49342;BME280;35210;41.606;-87.602;2022-07-10T03:44:21;100039.50;;;25.18;61.75
49342;BME280;35210;41.606;-87.602;2022-07-10T03:46:50;100022.19;;;25.13;61.84
49342;BME280;35210;41.606;-87.602;2022-07-10T03:49:19;100025.00;;;24.77;63.03
49342;BME280;35210;41.606;-87.602;2022-07-10T03:51:48;100009.25;;;25.02;62.27
49342;BME280;35210;41.606;-87.602;2022-07-10T03:54:17;100021.91;;;24.80;63.17
49342;BME280;35210;41.606;-87.602;2022-07-10T03:56:48;100022.38;;;24.83;63.22
49342;BME280;35210;41.606;-87.602;2022-07-10T03:59:33;100024.19;;;24.76;63.75
49342;BME280;35210;41.606;-87.602;2022-07-10T04:02:01;100025.41;;;24.74;64.04
49342;BME280;35210;41.606;-87.602;2022-07-10T04:04:30;100027.22;;;24.67;64.25
49342;BME280;35210;41.606;-87.602;2022-07-10T04:07:03;100025.38;;;25.23;62.43
49342;BME280;35210;41.606;-87.602;2022-07-10T04:09:32;100021.72;;;24.81;63.84
49342;BME280;35210;41.606;-87.602;2022-07-10T04:12:02;100032.66;;;24.73;64.48
49342;BME280;35210;41.606;-87.602;2022-07-10T04:14:32;100026.56;;;24.65;64.67
49342;BME280;35210;41.606;-87.602;2022-07-10T04:17:00;100024.91;;;24.64;64.74
49342;BME280;35210;41.606;-87.602;2022-07-10T04:19:29;100018.50;;;24.43;65.55
49342;BME280;35210;41.606;-87.602;2022-07-10T04:21:57;100029.91;;;24.39;65.80
49342;BME280;35210;41.606;-87.602;2022-07-10T04:24:25;100022.44;;;24.41;66.01
49342;BME280;35210;41.606;-87.602;2022-07-10T04:26:54;100026.81;;;24.42;66.07
49342;BME280;35210;41.606;-87.602;2022-07-10T04:29:24;100024.44;;;24.81;64.69
49342;BME280;35210;41.606;-87.602;2022-07-10T04:31:53;100015.81;;;24.71;65.13
49342;BME280;35210;41.606;-87.602;2022-07-10T04:34:23;100011.69;;;24.47;65.72
49342;BME280;35210;41.606;-87.602;2022-07-10T04:36:51;100011.78;;;24.33;66.68
49342;BME280;35210;41.606;-87.602;2022-07-10T04:39:19;100012.88;;;24.23;67.61
49342;BME280;35210;41.606;-87.602;2022-07-10T04:41:47;100008.06;;;24.89;65.84
49342;BME280;35210;41.606;-87.602;2022-07-10T04:44:16;100017.88;;;24.69;66.36
49342;BME280;35210;41.606;-87.602;2022-07-10T04:46:47;100002.56;;;24.27;67.88
49342;BME280;35210;41.606;-87.602;2022-07-10T04:49:15;100011.38;;;24.36;68.23
49342;BME280;35210;41.606;-87.602;2022-07-10T04:51:44;100007.88;;;24.20;68.58
49342;BME280;35210;41.606;-87.602;2022-07-10T04:54:13;100004.00;;;24.08;69.12
49342;BME280;35210;41.606;-87.602;2022-07-10T04:56:42;100015.03;;;24.28;68.78
49342;BME280;35210;41.606;-87.602;2022-07-10T04:59:10;100006.59;;;24.16;69.25
49342;BME280;35210;41.606;-87.602;2022-07-10T05:01:38;100009.28;;;24.16;69.58
49342;BME280;35210;41.606;-87.602;2022-07-10T05:04:08;100001.97;;;24.10;69.40
49342;BME280;35210;41.606;-87.602;2022-07-10T05:06:36;100011.78;;;23.97;69.88
49342;BME280;35210;41.606;-87.602;2022-07-10T05:09:04;100002.78;;;24.26;68.52
49342;BME280;35210;41.606;-87.602;2022-07-10T05:11:33;100005.81;;;24.22;68.57
49342;BME280;35210;41.606;-87.602;2022-07-10T05:14:01;100002.72;;;24.40;68.67
49342;BME280;35210;41.606;-87.602;2022-07-10T05:16:29;100004.06;;;24.30;69.44
49342;BME280;35210;41.606;-87.602;2022-07-10T05:18:57;99999.19;;;24.04;70.68
49342;BME280;35210;41.606;-87.602;2022-07-10T05:21:28;100003.41;;;24.28;69.71
49342;BME280;35210;41.606;-87.602;2022-07-10T05:23:56;100005.69;;;24.09;70.34
49342;BME280;35210;41.606;-87.602;2022-07-10T05:26:24;100009.38;;;23.87;70.95
49342;BME280;35210;41.606;-87.602;2022-07-10T05:28:52;100011.38;;;24.36;69.35
49342;BME280;35210;41.606;-87.602;2022-07-10T05:31:20;100018.28;;;23.87;71.02
49342;BME280;35210;41.606;-87.602;2022-07-10T05:33:48;100018.50;;;23.86;71.10
49342;BME280;35210;41.606;-87.602;2022-07-10T05:36:16;100024.44;;;24.17;70.27
49342;BME280;35210;41.606;-87.602;2022-07-10T05:38:45;100020.69;;;23.97;70.63
49342;BME280;35210;41.606;-87.602;2022-07-10T05:41:14;100018.16;;;23.74;71.68
49342;BME280;35210;41.606;-87.602;2022-07-10T05:43:42;100021.44;;;23.70;71.82
49342;BME280;35210;41.606;-87.602;2022-07-10T05:46:10;100013.44;;;24.34;69.85
49342;BME280;35210;41.606;-87.602;2022-07-10T05:48:38;100022.59;;;24.18;70.32
49342;BME280;35210;41.606;-87.602;2022-07-10T05:51:07;100026.63;;;23.71;72.00
49342;BME280;35210;41.606;-87.602;2022-07-10T05:53:35;100024.69;;;23.65;72.11
49342;BME280;35210;41.606;-87.602;2022-07-10T05:56:05;100020.59;;;23.69;72.16
49342;BME280;35210;41.606;-87.602;2022-07-10T05:58:33;100020.97;;;24.02;70.96
49342;BME280;35210;41.606;-87.602;2022-07-10T06:01:01;100022.66;;;23.67;72.33
49342;BME280;35210;41.606;-87.602;2022-07-10T06:03:29;100020.69;;;23.76;72.06
49342;BME280;35210;41.606;-87.602;2022-07-10T06:05:58;100019.00;;;23.75;72.22
49342;BME280;35210;41.606;-87.602;2022-07-10T06:08:27;100018.38;;;23.94;71.52
49342;BME280;35210;41.606;-87.602;2022-07-10T06:10:56;100014.94;;;23.64;72.91
49342;BME280;35210;41.606;-87.602;2022-07-10T06:13:27;100012.88;;;24.23;70.67
49342;BME280;35210;41.606;-87.602;2022-07-10T06:15:55;100022.72;;;23.74;72.22
49342;BME280;35210;41.606;-87.602;2022-07-10T06:18:23;100011.78;;;23.61;72.73
49342;BME280;35210;41.606;-87.602;2022-07-10T06:20:51;100005.94;;;23.57;72.97
49342;BME280;35210;41.606;-87.602;2022-07-10T06:23:19;100006.72;;;24.08;71.40
49342;BME280;35210;41.606;-87.602;2022-07-10T06:25:47;100001.06;;;24.03;71.30
49342;BME280;35210;41.606;-87.602;2022-07-10T06:28:17;99999.97;;;23.62;72.83
49342;BME280;35210;41.606;-87.602;2022-07-10T06:30:46;100005.47;;;23.53;72.97
49342;BME280;35210;41.606;-87.602;2022-07-10T06:33:14;99991.94;;;24.04;70.97
49342;BME280;35210;41.606;-87.602;2022-07-10T06:35:42;100007.41;;;23.59;72.76
49342;BME280;35210;41.606;-87.602;2022-07-10T06:38:10;100007.59;;;23.94;71.56
49342;BME280;35210;41.606;-87.602;2022-07-10T06:40:38;99990.97;;;23.54;73.10
49342;BME280;35210;41.606;-87.602;2022-07-10T06:43:06;99987.69;;;24.16;71.18
49342;BME280;35210;41.606;-87.602;2022-07-10T06:45:34;99995.88;;;23.87;72.25
49342;BME280;35210;41.606;-87.602;2022-07-10T06:48:04;100000.31;;;23.44;73.78
49342;BME280;35210;41.606;-87.602;2022-07-10T06:50:33;99990.47;;;23.36;74.25
49342;BME280;35210;41.606;-87.602;2022-07-10T06:53:02;99985.03;;;23.80;72.63
49342;BME280;35210;41.606;-87.602;2022-07-10T06:55:30;99986.00;;;23.73;72.43
49342;BME280;35210;41.606;-87.602;2022-07-10T06:57:59;99986.03;;;23.28;74.05
49342;BME280;35210;41.606;-87.602;2022-07-10T07:00:28;99982.84;;;23.69;72.75
49342;BME280;35210;41.606;-87.602;2022-07-10T07:02:56;99979.25;;;23.33;73.63
49342;BME280;35210;41.606;-87.602;2022-07-10T07:05:26;99978.41;;;23.32;73.77
49342;BME280;35210;41.606;-87.602;2022-07-10T07:07:54;99973.94;;;23.24;73.95
49342;BME280;35210;41.606;-87.602;2022-07-10T07:10:23;99961.56;;;23.59;72.43
49342;BME280;35210;41.606;-87.602;2022-07-10T07:12:51;99961.38;;;23.46;73.86
49342;BME280;35210;41.606;-87.602;2022-07-10T07:15:19;99957.59;;;23.11;74.22
49342;BME280;35210;41.606;-87.602;2022-07-10T07:17:50;99954.69;;;23.42;73.34
49342;BME280;35210;41.606;-87.602;2022-07-10T07:20:39;99958.75;;;23.02;74.90
49342;BME280;35210;41.606;-87.602;2022-07-10T07:23:25;99955.91;;;23.54;73.08
49342;BME280;35210;41.606;-87.602;2022-07-10T07:25:53;99956.06;;;23.02;74.36
49342;BME280;35210;41.606;-87.602;2022-07-10T07:28:22;99957.34;;;22.91;75.04
49342;BME280;35210;41.606;-87.602;2022-07-10T07:30:50;99949.50;;;23.41;73.48
49342;BME280;35210;41.606;-87.602;2022-07-10T07:33:18;99944.03;;;23.34;73.62
49342;BME280;35210;41.606;-87.602;2022-07-10T07:35:48;99943.78;;;22.85;75.31
49342;BME280;35210;41.606;-87.602;2022-07-10T07:38:16;99941.56;;;22.88;75.75
49342;BME280;35210;41.606;-87.602;2022-07-10T07:40:44;99930.13;;;23.01;74.53
49342;BME280;35210;41.606;-87.602;2022-07-10T07:43:13;99939.28;;;22.77;75.56
49342;BME280;35210;41.606;-87.602;2022-07-10T07:45:41;99943.72;;;22.70;75.95
49342;BME280;35210;41.606;-87.602;2022-07-10T07:48:13;99939.00;;;23.31;73.81
49342;BME280;35210;41.606;-87.602;2022-07-10T07:50:41;99947.72;;;22.74;75.70
49342;BME280;35210;41.606;-87.602;2022-07-10T07:53:11;99954.34;;;23.16;74.40
49342;BME280;35210;41.606;-87.602;2022-07-10T07:55:39;99958.81;;;22.79;75.90
49342;BME280;35210;41.606;-87.602;2022-07-10T07:58:07;99952.66;;;23.15;75.08
49342;BME280;35210;41.606;-87.602;2022-07-10T08:00:35;99955.47;;;23.07;74.92
49342;BME280;35210;41.606;-87.602;2022-07-10T08:03:04;99958.75;;;22.65;76.17
49342;BME280;35210;41.606;-87.602;2022-07-10T08:05:32;99964.47;;;22.47;77.06
49342;BME280;35210;41.606;-87.602;2022-07-10T08:08:00;99961.75;;;22.70;76.00
49342;BME280;35210;41.606;-87.602;2022-07-10T08:10:34;99959.00;;;22.92;75.48
49342;BME280;35210;41.606;-87.602;2022-07-10T08:13:03;99960.41;;;22.51;76.75
49342;BME280;35210;41.606;-87.602;2022-07-10T08:15:31;99960.50;;;22.80;75.99
49342;BME280;35210;41.606;-87.602;2022-07-10T08:18:01;99960.75;;;22.48;76.86
49342;BME280;35210;41.606;-87.602;2022-07-10T08:20:30;99949.72;;;22.80;76.37
49342;BME280;35210;41.606;-87.602;2022-07-10T08:22:58;99942.88;;;22.55;76.91
49342;BME280;35210;41.606;-87.602;2022-07-10T08:25:27;99926.09;;;22.30;77.78
49342;BME280;35210;41.606;-87.602;2022-07-10T08:28:02;99933.44;;;22.74;76.08
49342;BME280;35210;41.606;-87.602;2022-07-10T08:30:32;99929.38;;;22.25;77.72
49342;BME280;35210;41.606;-87.602;2022-07-10T08:33:01;99923.13;;;22.77;76.30
49342;BME280;35210;41.606;-87.602;2022-07-10T08:35:29;99917.91;;;22.61;76.86
49342;BME280;35210;41.606;-87.602;2022-07-10T08:37:58;99923.03;;;22.18;78.28
49342;BME280;35210;41.606;-87.602;2022-07-10T08:40:34;99922.34;;;22.54;77.36
49342;BME280;35210;41.606;-87.602;2022-07-10T08:43:04;99917.41;;;22.43;77.83
49342;BME280;35210;41.606;-87.602;2022-07-10T08:45:33;99908.34;;;22.06;78.66
49342;BME280;35210;41.606;-87.602;2022-07-10T08:48:02;99906.06;;;22.33;78.25
49342;BME280;35210;41.606;-87.602;2022-07-10T08:50:34;99906.03;;;21.95;79.32
49342;BME280;35210;41.606;-87.602;2022-07-10T08:53:09;99907.38;;;21.99;79.28
49342;BME280;35210;41.606;-87.602;2022-07-10T08:55:38;99900.38;;;21.90;79.51
49342;BME280;35210;41.606;-87.602;2022-07-10T08:58:11;99895.97;;;22.35;77.83
49342;BME280;35210;41.606;-87.602;2022-07-10T09:00:40;99899.72;;;21.88;79.12
49342;BME280;35210;41.606;-87.602;2022-07-10T09:03:09;99897.28;;;22.39;77.09
49342;BME280;35210;41.606;-87.602;2022-07-10T09:05:37;99905.44;;;21.85;79.52
49342;BME280;35210;41.606;-87.602;2022-07-10T09:08:21;99900.78;;;21.79;79.90
49342;BME280;35210;41.606;-87.602;2022-07-10T09:10:49;99891.00;;;22.61;76.74
49342;BME280;35210;41.606;-87.602;2022-07-10T09:13:19;99895.25;;;22.41;77.40
49342;BME280;35210;41.606;-87.602;2022-07-10T09:15:50;99907.38;;;21.99;78.52
49342;BME280;35210;41.606;-87.602;2022-07-10T09:18:23;99903.13;;;22.42;77.87
49342;BME280;35210;41.606;-87.602;2022-07-10T09:20:52;99903.66;;;22.00;78.86
49342;BME280;35210;41.606;-87.602;2022-07-10T09:23:22;99891.13;;;22.15;79.36
49342;BME280;35210;41.606;-87.602;2022-07-10T09:25:52;99893.50;;;21.87;79.05
49342;BME280;35210;41.606;-87.602;2022-07-10T09:28:23;99888.84;;;22.42;77.57
49342;BME280;35210;41.606;-87.602;2022-07-10T09:30:51;99891.41;;;22.35;77.54
49342;BME280;35210;41.606;-87.602;2022-07-10T09:33:23;99883.72;;;22.17;78.28
49342;BME280;35210;41.606;-87.602;2022-07-10T09:35:57;99887.25;;;22.33;78.03
49342;BME280;35210;41.606;-87.602;2022-07-10T09:38:51;99877.75;;;22.07;78.47
49342;BME280;35210;41.606;-87.602;2022-07-10T09:41:22;99885.38;;;21.73;79.98
49342;BME280;35210;41.606;-87.602;2022-07-10T09:43:53;99889.81;;;22.11;78.89
49342;BME280;35210;41.606;-87.602;2022-07-10T09:46:23;99878.50;;;21.93;79.12
49342;BME280;35210;41.606;-87.602;2022-07-10T09:49:08;99879.03;;;21.65;80.21
49342;BME280;35210;41.606;-87.602;2022-07-10T09:51:38;99872.72;;;22.04;78.69
49342;BME280;35210;41.606;-87.602;2022-07-10T09:54:07;99875.69;;;21.63;79.65
49342;BME280;35210;41.606;-87.602;2022-07-10T09:56:40;99878.34;;;22.17;77.64
49342;BME280;35210;41.606;-87.602;2022-07-10T09:59:13;99883.53;;;21.96;78.87
49342;BME280;35210;41.606;-87.602;2022-07-10T10:01:44;99891.94;;;21.47;79.89
49342;BME280;35210;41.606;-87.602;2022-07-10T10:04:13;99886.84;;;22.06;77.86
49342;BME280;35210;41.606;-87.602;2022-07-10T10:06:42;99908.19;;;22.00;78.48
49342;BME280;35210;41.606;-87.602;2022-07-10T10:09:17;99909.69;;;21.79;78.89
49342;BME280;35210;41.606;-87.602;2022-07-10T10:11:51;99904.50;;;22.01;78.63
49342;BME280;35210;41.606;-87.602;2022-07-10T10:14:24;99911.47;;;21.87;79.38
49342;BME280;35210;41.606;-87.602;2022-07-10T10:16:55;99909.66;;;21.56;79.14
49342;BME280;35210;41.606;-87.602;2022-07-10T10:19:24;99917.22;;;21.30;80.64
49342;BME280;35210;41.606;-87.602;2022-07-10T10:22:08;99916.59;;;22.05;78.39
49342;BME280;35210;41.606;-87.602;2022-07-10T10:24:39;99920.91;;;21.83;78.64
49342;BME280;35210;41.606;-87.602;2022-07-10T10:27:08;99915.84;;;21.34;80.78
49342;BME280;35210;41.606;-87.602;2022-07-10T10:29:39;99912.00;;;21.59;79.41
49342;BME280;35210;41.606;-87.602;2022-07-10T10:32:08;99914.22;;;21.25;81.15
49342;BME280;35210;41.606;-87.602;2022-07-10T10:34:43;99911.38;;;21.80;78.82
49342;BME280;35210;41.606;-87.602;2022-07-10T10:37:44;99916.22;;;21.31;80.21
49342;BME280;35210;41.606;-87.602;2022-07-10T10:40:31;99909.75;;;21.94;77.99
49342;BME280;35210;41.606;-87.602;2022-07-10T10:43:16;99917.19;;;21.38;79.45
49342;BME280;35210;41.606;-87.602;2022-07-10T10:45:46;99913.56;;;22.00;77.75
49342;BME280;35210;41.606;-87.602;2022-07-10T10:48:16;99915.50;;;21.91;77.83
49342;BME280;35210;41.606;-87.602;2022-07-10T10:50:47;99918.69;;;21.63;78.69
49342;BME280;35210;41.606;-87.602;2022-07-10T10:53:16;99926.28;;;21.29;79.95
49342;BME280;35210;41.606;-87.602;2022-07-10T10:56:21;99937.19;;;21.58;78.80
49342;BME280;35210;41.606;-87.602;2022-07-10T10:58:50;99934.84;;;21.86;78.31
49342;BME280;35210;41.606;-87.602;2022-07-10T11:01:27;99946.44;;;21.25;80.59
49342;BME280;35210;41.606;-87.602;2022-07-10T11:04:16;99952.47;;;21.35;80.23
49342;BME280;35210;41.606;-87.602;2022-07-10T11:06:47;99953.03;;;21.53;79.79
49342;BME280;35210;41.606;-87.602;2022-07-10T11:09:27;99957.91;;;21.81;79.49
49342;BME280;35210;41.606;-87.602;2022-07-10T11:12:03;99966.22;;;21.32;80.95
49342;BME280;35210;41.606;-87.602;2022-07-10T11:14:34;99962.53;;;21.64;80.68
49342;BME280;35210;41.606;-87.602;2022-07-10T11:17:06;99963.81;;;21.45;81.21
49342;BME280;35210;41.606;-87.602;2022-07-10T11:19:36;99965.41;;;21.62;81.50
49342;BME280;35210;41.606;-87.602;2022-07-10T11:25:24;99989.50;;;21.79;80.70
49342;BME280;35210;41.606;-87.602;2022-07-10T11:28:08;99985.56;;;21.19;83.05
49342;BME280;35210;41.606;-87.602;2022-07-10T11:30:47;99992.09;;;21.17;83.66
49342;BME280;35210;41.606;-87.602;2022-07-10T11:33:19;99995.63;;;21.64;82.24
49342;BME280;35210;41.606;-87.602;2022-07-10T11:35:49;99989.91;;;21.20;84.04
49342;BME280;35210;41.606;-87.602;2022-07-10T11:38:22;99984.25;;;21.85;82.24
49342;BME280;35210;41.606;-87.602;2022-07-10T11:40:52;99986.19;;;21.69;82.75
49342;BME280;35210;41.606;-87.602;2022-07-10T11:43:21;99989.50;;;21.79;83.27
49342;BME280;35210;41.606;-87.602;2022-07-10T11:45:51;99995.00;;;21.54;83.85
49342;BME280;35210;41.606;-87.602;2022-07-10T11:48:27;100000.00;;;21.57;84.01
49342;BME280;35210;41.606;-87.602;2022-07-10T11:50:56;99984.56;;;21.90;83.09
49342;BME280;35210;41.606;-87.602;2022-07-10T11:53:25;99985.41;;;21.91;82.56
49342;BME280;35210;41.606;-87.602;2022-07-10T11:55:53;99987.38;;;21.35;84.61
49342;BME280;35210;41.606;-87.602;2022-07-10T11:58:22;99985.84;;;22.03;76.23
49342;BME280;35210;41.606;-87.602;2022-07-10T12:01:00;99982.41;;;21.86;77.78
49342;BME280;35210;41.606;-87.602;2022-07-10T12:03:32;99981.75;;;21.53;78.65
49342;BME280;35210;41.606;-87.602;2022-07-10T12:06:05;99987.06;;;21.92;73.67
49342;BME280;35210;41.606;-87.602;2022-07-10T12:08:44;99985.63;;;21.50;75.65
49342;BME280;35210;41.606;-87.602;2022-07-10T12:11:13;99984.84;;;22.26;74.22
49342;BME280;35210;41.606;-87.602;2022-07-10T12:13:42;99982.88;;;22.20;71.90
49342;BME280;35210;41.606;-87.602;2022-07-10T12:16:10;99995.22;;;21.76;72.73
49342;BME280;35210;41.606;-87.602;2022-07-10T12:18:41;99990.03;;;21.74;72.64
49342;BME280;35210;41.606;-87.602;2022-07-10T12:21:10;99993.41;;;21.68;72.49
49342;BME280;35210;41.606;-87.602;2022-07-10T12:23:38;99988.22;;;22.43;70.96
49342;BME280;35210;41.606;-87.602;2022-07-10T12:26:12;99991.25;;;22.25;70.63
49342;BME280;35210;41.606;-87.602;2022-07-10T12:28:51;99999.81;;;21.98;70.10
49342;BME280;35210;41.606;-87.602;2022-07-10T12:31:24;99999.50;;;22.61;68.87
49342;BME280;35210;41.606;-87.602;2022-07-10T12:33:58;100006.72;;;22.23;68.61
49342;BME280;35210;41.606;-87.602;2022-07-10T12:36:42;100006.66;;;22.69;67.27
49342;BME280;35210;41.606;-87.602;2022-07-10T12:39:12;100007.09;;;22.81;66.89
49342;BME280;35210;41.606;-87.602;2022-07-10T12:41:59;100019.19;;;22.62;67.68
49342;BME280;35210;41.606;-87.602;2022-07-10T12:44:36;100015.53;;;22.55;68.04
49342;BME280;35210;41.606;-87.602;2022-07-10T12:47:06;100019.72;;;22.80;67.50
49342;BME280;35210;41.606;-87.602;2022-07-10T12:49:52;100022.84;;;22.46;65.58
49342;BME280;35210;41.606;-87.602;2022-07-10T12:52:26;100021.47;;;22.50;66.45
49342;BME280;35210;41.606;-87.602;2022-07-10T12:55:08;100033.06;;;22.51;66.29